Time;durP1;ratioP1;P1;durP2;ratioP2;P2;SDS_P1;SDS_P2;PMS_P1;PMS_P2;Temp;Humidity;BMP_temperature;BMP_pressure;BME280_temperature;BME280_humidity;BME280_pressure;Samples;Min_cycle;Max_cycle;Signal;HPM_P1;HPM_P2
2023/04/12 00:00:35;;;;;;;2.23;0.90;;;;;;;;;;6215339;23;20438;-65
2023/04/12 00:03:06;;;;;;;2.03;0.73;;;;;;;;;;6215862;23;20387;-66
2023/04/12 00:05:33;;;;;;;1.33;0.90;;;;;;;;;;6215890;23;20450;-67
2023/04/12 00:08:03;;;;;;;0.73;0.73;;;;;;;;;;6215870;23;20387;-66
2023/04/12 00:10:29;;;;;;;4.63;0.80;;;;;;;;;;6215849;23;20363;-66
2023/04/12 00:12:55;;;;;;;2.37;0.70;;;;;;;;;;6215834;23;20422;-66
2023/04/12 00:15:21;;;;;;;1.97;1.50;;;;;;;;;;6215391;23;20390;-66
2023/04/12 00:17:47;;;;;;;0.90;0.90;;;;;;;;;;6215426;23;20367;-66
2023/04/12 00:20:15;;;;;;;1.13;0.77;;;;;;;;;;6215121;23;20444;-66
2023/04/12 00:22:41;;;;;;;0.80;0.80;;;;;;;;;;6215385;23;20387;-66
2023/04/12 00:25:07;;;;;;;1.67;0.90;;;;;;;;;;6215294;23;20749;-66
2023/04/12 00:27:33;;;;;;;0.77;0.73;;;;;;;;;;6215472;23;20857;-66
2023/04/12 00:29:59;;;;;;;0.90;0.70;;;;;;;;;;6215523;23;20381;-66
2023/04/12 00:32:26;;;;;;;0.73;0.70;;;;;;;;;;6215316;23;20872;-66
2023/04/12 00:34:52;;;;;;;0.70;0.70;;;;;;;;;;6215357;23;20466;-66
2023/04/12 00:37:18;;;;;;;2.93;0.87;;;;;;;;;;6215404;23;20376;-66
2023/04/12 00:39:44;;;;;;;3.00;0.83;;;;;;;;;;6215376;23;20434;-66
2023/04/12 00:42:10;;;;;;;0.97;0.67;;;;;;;;;;6214518;23;20963;-66
2023/04/12 00:44:36;;;;;;;2.30;0.77;;;;;;;;;;6215193;23;20371;-65
2023/04/12 00:47:04;;;;;;;1.90;0.80;;;;;;;;;;6214923;23;20379;-65
2023/04/12 00:49:30;;;;;;;2.00;1.20;;;;;;;;;;6215692;23;20379;-65
2023/04/12 00:52:02;;;;;;;2.50;1.10;;;;;;;;;;6215570;23;20383;-66
2023/04/12 00:54:29;;;;;;;1.90;0.80;;;;;;;;;;6215615;23;20836;-66
2023/04/12 00:56:56;;;;;;;2.00;0.60;;;;;;;;;;6215621;23;20469;-66
2023/04/12 00:59:22;;;;;;;0.97;0.97;;;;;;;;;;6215927;23;20371;-66
2023/04/12 01:01:48;;;;;;;0.77;0.77;;;;;;;;;;6215049;23;20426;-66
2023/04/12 01:04:14;;;;;;;2.93;0.70;;;;;;;;;;6215373;23;20813;-66
2023/04/12 01:07:02;;;;;;;2.13;1.00;;;;;;;;;;6215208;23;20871;-66
2023/04/12 01:09:53;;;;;;;1.00;1.00;;;;;;;;;;6215563;23;20367;-66
2023/04/12 01:12:37;;;;;;;0.77;0.77;;;;;;;;;;6215578;23;20375;-66
2023/04/12 01:15:06;;;;;;;0.70;0.70;;;;;;;;;;6215609;23;20390;-66
2023/04/12 01:17:36;;;;;;;0.80;0.80;;;;;;;;;;6215181;23;20852;-66
2023/04/12 01:20:15;;;;;;;1.00;0.90;;;;;;;;;;6215077;23;20466;-66
2023/04/12 01:23:03;;;;;;;0.70;0.70;;;;;;;;;;6214970;23;20400;-66
2023/04/12 01:25:29;;;;;;;0.70;0.70;;;;;;;;;;6215500;23;20372;-66
2023/04/12 01:28:03;;;;;;;1.87;0.60;;;;;;;;;;6215430;23;20562;-66
2023/04/12 01:30:29;;;;;;;1.17;1.07;;;;;;;;;;6216056;23;20394;-66
2023/04/12 01:32:59;;;;;;;2.50;0.90;;;;;;;;;;6216857;23;20379;-66
2023/04/12 01:35:29;;;;;;;1.13;0.60;;;;;;;;;;6217242;23;20379;-66
2023/04/12 01:37:56;;;;;;;0.83;0.83;;;;;;;;;;6216815;23;20525;-66
2023/04/12 01:40:22;;;;;;;1.10;1.10;;;;;;;;;;6216502;23;20449;-66
2023/04/12 01:42:48;;;;;;;0.70;0.70;;;;;;;;;;6217140;23;20474;-66
2023/04/12 01:45:14;;;;;;;0.90;0.90;;;;;;;;;;6217178;23;20374;-66
2023/04/12 01:47:40;;;;;;;2.53;0.90;;;;;;;;;;6217048;23;20410;-66
2023/04/12 01:50:22;;;;;;;2.63;1.03;;;;;;;;;;6217039;23;20848;-66
2023/04/12 01:53:11;;;;;;;2.83;1.10;;;;;;;;;;6217055;23;20379;-65
2023/04/12 01:55:38;;;;;;;6.47;0.97;;;;;;;;;;6201181;23;20477;-66
2023/04/12 01:58:05;;;;;;;1.93;0.97;;;;;;;;;;6216747;23;20376;-66
2023/04/12 02:00:32;;;;;;;0.90;0.90;;;;;;;;;;6216542;23;20907;-66
2023/04/12 02:02:58;;;;;;;0.90;0.90;;;;;;;;;;6217271;23;20380;-66
2023/04/12 02:05:24;;;;;;;2.47;0.90;;;;;;;;;;6216541;23;20367;-66
2023/04/12 02:07:51;;;;;;;1.07;0.83;;;;;;;;;;6216606;23;20403;-65
2023/04/12 02:10:27;;;;;;;1.60;1.20;;;;;;;;;;6216851;23;20382;-67
2023/04/12 02:12:53;;;;;;;2.63;1.00;;;;;;;;;;6217241;23;20434;-66
2023/04/12 02:15:20;;;;;;;1.57;0.90;;;;;;;;;;6216595;23;20375;-66
2023/04/12 02:17:46;;;;;;;8.83;0.80;;;;;;;;;;6216867;23;20375;-66
2023/04/12 02:20:12;;;;;;;1.80;1.00;;;;;;;;;;6216633;23;20407;-66
2023/04/12 02:22:38;;;;;;;1.37;0.90;;;;;;;;;;6216829;23;20379;-66
2023/04/12 02:25:05;;;;;;;2.67;1.00;;;;;;;;;;6216835;23;20387;-66
2023/04/12 02:27:31;;;;;;;0.70;0.70;;;;;;;;;;6216871;23;20391;-66
2023/04/12 02:29:58;;;;;;;1.00;1.00;;;;;;;;;;6216363;23;20371;-67
2023/04/12 02:32:24;;;;;;;1.20;0.80;;;;;;;;;;6217035;23;20382;-66
2023/04/12 02:34:50;;;;;;;2.30;1.37;;;;;;;;;;6216697;23;20915;-66
2023/04/12 02:37:17;;;;;;;0.93;0.80;;;;;;;;;;6216746;23;20386;-66
2023/04/12 02:39:43;;;;;;;1.30;1.20;;;;;;;;;;6216234;23;20488;-66
2023/04/12 02:42:09;;;;;;;1.33;1.00;;;;;;;;;;6216377;23;20427;-66
2023/04/12 02:44:35;;;;;;;1.27;1.27;;;;;;;;;;6216638;23;20383;-66
2023/04/12 02:47:01;;;;;;;1.03;0.70;;;;;;;;;;6217568;23;20475;-66
2023/04/12 02:49:27;;;;;;;6.00;1.00;;;;;;;;;;6216663;23;20433;-66
2023/04/12 02:51:53;;;;;;;1.40;1.30;;;;;;;;;;6214632;23;20717;-66
2023/04/12 02:54:20;;;;;;;1.00;1.00;;;;;;;;;;6216562;23;20394;-66
2023/04/12 02:56:45;;;;;;;0.77;0.77;;;;;;;;;;6216437;23;20430;-66
2023/04/12 02:59:11;;;;;;;3.13;1.50;;;;;;;;;;6216528;23;20387;-66
2023/04/12 03:01:38;;;;;;;0.97;0.97;;;;;;;;;;6215774;23;20508;-66
2023/04/12 03:04:04;;;;;;;8.63;1.33;;;;;;;;;;6216065;23;20903;-66
2023/04/12 03:06:30;;;;;;;1.37;1.00;;;;;;;;;;6216071;23;20379;-66
2023/04/12 03:08:56;;;;;;;1.13;0.70;;;;;;;;;;6216429;23;20371;-66
2023/04/12 03:11:22;;;;;;;0.50;0.50;;;;;;;;;;6215931;23;20381;-65
2023/04/12 03:13:48;;;;;;;3.50;0.97;;;;;;;;;;6216023;23;20399;-66
2023/04/12 03:19:18;;;;;;;0.87;0.77;;;;;;;;;;6216109;23;20415;-66
2023/04/12 03:21:44;;;;;;;0.90;0.90;;;;;;;;;;6215786;23;20423;-66
2023/04/12 03:24:10;;;;;;;3.67;1.00;;;;;;;;;;6216299;23;20458;-66
2023/04/12 03:26:36;;;;;;;2.67;0.80;;;;;;;;;;6215868;23;20421;-66
2023/04/12 03:29:07;;;;;;;1.17;0.97;;;;;;;;;;6216237;23;20375;-66
2023/04/12 03:31:33;;;;;;;0.80;0.80;;;;;;;;;;6216231;23;20407;-66
2023/04/12 03:33:59;;;;;;;0.63;0.63;;;;;;;;;;6215937;23;20398;-66
2023/04/12 03:36:28;;;;;;;0.70;0.70;;;;;;;;;;6216178;23;20406;-66
2023/04/12 03:38:55;;;;;;;0.77;0.77;;;;;;;;;;6215528;23;20437;-65
2023/04/12 03:41:24;;;;;;;0.83;0.83;;;;;;;;;;6215929;23;20430;-66
2023/04/12 03:43:50;;;;;;;1.10;1.10;;;;;;;;;;6216107;23;20375;-66
2023/04/12 03:46:16;;;;;;;0.97;0.97;;;;;;;;;;6215602;23;20681;-66
2023/04/12 03:48:43;;;;;;;1.73;0.97;;;;;;;;;;6215666;23;20848;-66
2023/04/12 03:51:10;;;;;;;1.73;0.90;;;;;;;;;;6216011;23;20379;-65
2023/04/12 03:53:37;;;;;;;2.67;0.77;;;;;;;;;;6215698;23;20363;-66
2023/04/12 03:56:03;;;;;;;1.10;1.10;;;;;;;;;;6216001;23;20387;-66
2023/04/12 03:58:29;;;;;;;0.60;0.60;;;;;;;;;;6216030;23;20401;-66
2023/04/12 04:00:55;;;;;;;1.23;1.13;;;;;;;;;;6215737;23;20897;-66
2023/04/12 04:03:25;;;;;;;1.00;1.00;;;;;;;;;;6215642;23;20490;-66
2023/04/12 04:05:51;;;;;;;1.40;1.30;;;;;;;;;;6215581;23;20375;-66
2023/04/12 04:08:17;;;;;;;1.73;1.73;;;;;;;;;;6216011;23;20371;-67
2023/04/12 04:10:43;;;;;;;1.00;1.00;;;;;;;;;;6215738;23;20694;-66
2023/04/12 04:13:09;;;;;;;0.70;0.70;;;;;;;;;;6215553;23;20382;-67
2023/04/12 04:15:36;;;;;;;1.33;1.10;;;;;;;;;;6215803;23;20394;-66
2023/04/12 04:18:02;;;;;;;1.10;1.00;;;;;;;;;;6216842;23;20465;-66
2023/04/12 04:20:28;;;;;;;1.10;0.97;;;;;;;;;;6215407;23;20877;-71
2023/04/12 04:22:53;;;;;;;1.07;0.97;;;;;;;;;;6215497;23;20430;-71
2023/04/12 04:25:20;;;;;;;2.50;1.30;;;;;;;;;;6215524;23;20374;-68
2023/04/12 04:27:48;;;;;;;2.00;1.20;;;;;;;;;;6215685;23;20461;-68
2023/04/12 04:30:15;;;;;;;1.17;1.17;;;;;;;;;;6215343;23;20377;-68
2023/04/12 04:32:42;;;;;;;1.03;0.97;;;;;;;;;;6215490;23;20379;-68
2023/04/12 04:35:08;;;;;;;5.80;1.67;;;;;;;;;;6215813;23;20858;-67
2023/04/12 04:37:34;;;;;;;1.07;1.03;;;;;;;;;;6215774;23;20693;-68
2023/04/12 04:40:06;;;;;;;1.03;1.03;;;;;;;;;;6215531;23;20808;-70
2023/04/12 04:42:32;;;;;;;1.70;1.10;;;;;;;;;;6215797;23;20403;-74
2023/04/12 04:45:03;;;;;;;0.90;0.90;;;;;;;;;;6215720;23;20895;-70
2023/04/12 04:47:29;;;;;;;2.97;1.20;;;;;;;;;;6215782;23;20679;-73
2023/04/12 04:49:59;;;;;;;1.60;0.90;;;;;;;;;;6215385;23;20379;-74
2023/04/12 04:52:26;;;;;;;1.13;1.13;;;;;;;;;;6215416;23;20363;-72
2023/04/12 04:54:56;;;;;;;0.87;0.87;;;;;;;;;;6215680;23;20383;-66
2023/04/12 04:57:22;;;;;;;1.47;1.47;;;;;;;;;;6216237;23;20383;-67
2023/04/12 04:59:48;;;;;;;1.00;1.00;;;;;;;;;;6215701;23;20839;-66
2023/04/12 05:02:15;;;;;;;1.00;1.00;;;;;;;;;;6215574;23;20438;-66
2023/04/12 05:04:41;;;;;;;3.80;3.00;;;;;;;;;;6215988;23;20452;-66
2023/04/12 05:07:07;;;;;;;2.20;2.10;;;;;;;;;;6217256;23;20375;-67
2023/04/12 05:09:33;;;;;;;2.53;2.33;;;;;;;;;;6217633;23;20777;-66
2023/04/12 05:11:59;;;;;;;1.97;1.87;;;;;;;;;;6217050;23;20371;-66
2023/04/12 05:14:25;;;;;;;2.03;1.90;;;;;;;;;;6217531;23;20437;-66
2023/04/12 05:16:51;;;;;;;7.20;1.90;;;;;;;;;;6217397;23;20474;-66
2023/04/12 05:19:17;;;;;;;1.37;1.07;;;;;;;;;;6217170;23;20406;-73
2023/04/12 05:21:43;;;;;;;6.47;1.53;;;;;;;;;;6217663;23;20422;-78
2023/04/12 05:24:10;;;;;;;1.90;1.20;;;;;;;;;;6217540;23;20461;-77
2023/04/12 05:26:36;;;;;;;3.00;1.20;;;;;;;;;;6217454;23;20390;-73
2023/04/12 05:29:02;;;;;;;1.37;0.80;;;;;;;;;;6217811;23;20375;-70
2023/04/12 05:31:28;;;;;;;0.90;0.90;;;;;;;;;;6216860;23;20375;-72
2023/04/12 05:33:54;;;;;;;2.13;0.93;;;;;;;;;;6217397;23;20419;-72
2023/04/12 05:36:20;;;;;;;12.33;0.97;;;;;;;;;;6217083;23;20425;-72
2023/04/12 05:38:46;;;;;;;0.97;0.60;;;;;;;;;;6217198;23;20371;-72
2023/04/12 05:41:12;;;;;;;2.20;0.90;;;;;;;;;;6216979;23;20430;-71
2023/04/12 05:43:38;;;;;;;4.70;1.27;;;;;;;;;;6217345;23;20415;-76
2023/04/12 05:46:06;;;;;;;4.10;1.57;;;;;;;;;;6215256;23;20730;-70
2023/04/12 05:48:32;;;;;;;2.50;1.60;;;;;;;;;;6216944;23;20479;-79
2023/04/12 05:50:58;;;;;;;3.70;1.83;;;;;;;;;;6216951;23;20425;-79
2023/04/12 05:53:28;;;;;;;2.10;1.43;;;;;;;;;;6216797;23;20375;-70
2023/04/12 05:55:54;;;;;;;1.80;1.70;;;;;;;;;;6216766;23;20438;-75
2023/04/12 05:58:20;;;;;;;2.40;0.93;;;;;;;;;;6217057;23;20390;-74
2023/04/12 06:00:48;;;;;;;3.90;0.90;;;;;;;;;;6216394;23;20434;-73
2023/04/12 06:03:14;;;;;;;1.00;1.00;;;;;;;;;;6217382;23;20743;-76
2023/04/12 06:05:40;;;;;;;0.90;0.90;;;;;;;;;;6216661;23;20387;-75
2023/04/12 06:08:07;;;;;;;1.10;0.87;;;;;;;;;;6216686;23;20871;-78
2023/04/12 06:10:33;;;;;;;1.10;1.10;;;;;;;;;;6217188;23;20402;-73
2023/04/12 06:12:59;;;;;;;1.30;1.20;;;;;;;;;;6216983;23;20383;-74
2023/04/12 06:15:25;;;;;;;1.37;1.10;;;;;;;;;;6216905;23;20375;-77
2023/04/12 06:17:51;;;;;;;2.10;1.13;;;;;;;;;;6216898;23;20482;-73
2023/04/12 06:20:17;;;;;;;1.30;1.30;;;;;;;;;;6216536;23;20376;-68
2023/04/12 06:22:43;;;;;;;0.70;0.70;;;;;;;;;;6216564;23;20375;-72
2023/04/12 06:25:09;;;;;;;0.70;0.67;;;;;;;;;;6216796;23;20468;-69
2023/04/12 06:27:35;;;;;;;1.37;1.37;;;;;;;;;;6217293;23;20375;-69
2023/04/12 06:30:01;;;;;;;1.80;0.80;;;;;;;;;;6216768;23;20389;-78
2023/04/12 06:32:27;;;;;;;2.60;1.10;;;;;;;;;;6216605;23;20701;-79
2023/04/12 06:34:53;;;;;;;2.00;1.50;;;;;;;;;;6216131;23;20837;-79
2023/04/12 06:37:20;;;;;;;2.23;1.30;;;;;;;;;;6216727;23;20410;-71
2023/04/12 06:39:46;;;;;;;1.30;1.30;;;;;;;;;;6216488;23;20923;-79
2023/04/12 06:42:12;;;;;;;2.00;1.37;;;;;;;;;;6216088;23;20514;-78
2023/04/12 06:44:38;;;;;;;1.27;1.27;;;;;;;;;;6216164;23;20678;-75
2023/04/12 06:47:04;;;;;;;1.47;1.40;;;;;;;;;;6216495;23;20383;-70
2023/04/12 06:49:31;;;;;;;1.43;1.33;;;;;;;;;;6216422;23;20407;-70
2023/04/12 06:51:57;;;;;;;1.60;1.50;;;;;;;;;;6216504;23;20429;-60
2023/04/12 06:54:23;;;;;;;4.07;1.43;;;;;;;;;;6216494;23;20421;-61
2023/04/12 06:59:53;;;;;;;0.73;0.70;;;;;;;;;;6216174;23;20382;-70
2023/04/12 07:02:19;;;;;;;0.97;0.97;;;;;;;;;;6215608;23;20916;-70
2023/04/12 07:04:45;;;;;;;1.37;1.30;;;;;;;;;;6216180;23;20372;-76
2023/04/12 07:07:11;;;;;;;6.63;1.50;;;;;;;;;;6214385;23;20405;-73
2023/04/12 07:09:37;;;;;;;3.80;1.37;;;;;;;;;;6216187;23;20371;-76
2023/04/12 07:12:03;;;;;;;1.40;1.30;;;;;;;;;;6216078;23;20438;-78
2023/04/12 07:14:29;;;;;;;1.00;1.00;;;;;;;;;;6216167;23;20453;-76
2023/04/12 07:16:55;;;;;;;8.63;1.47;;;;;;;;;;6215766;23;20375;-76
2023/04/12 07:19:21;;;;;;;1.27;1.27;;;;;;;;;;6216234;23;20513;-70
2023/04/12 07:21:47;;;;;;;2.50;0.90;;;;;;;;;;6216356;23;20438;-78
2023/04/12 07:24:13;;;;;;;0.93;0.93;;;;;;;;;;6216159;23;20441;-78
2023/04/12 07:26:39;;;;;;;0.90;0.90;;;;;;;;;;6215940;23;20755;-68
2023/04/12 07:29:05;;;;;;;1.47;1.20;;;;;;;;;;6215934;23;20375;-71
2023/04/12 07:31:31;;;;;;;1.00;1.00;;;;;;;;;;6215995;23;20406;-77
2023/04/12 07:33:57;;;;;;;1.20;0.80;;;;;;;;;;6216433;23;20414;-77
2023/04/12 07:36:23;;;;;;;1.07;1.07;;;;;;;;;;6216123;23;20378;-76
2023/04/12 07:38:53;;;;;;;0.80;0.80;;;;;;;;;;6215493;23;20446;-77
2023/04/12 07:41:19;;;;;;;2.10;1.27;;;;;;;;;;6216008;23;20454;-75
2023/04/12 07:43:45;;;;;;;5.43;5.13;;;;;;;;;;6215618;23;20371;-75
2023/04/12 07:46:11;;;;;;;2.83;1.37;;;;;;;;;;6215970;23;20379;-76
2023/04/12 07:48:37;;;;;;;1.40;1.30;;;;;;;;;;6215717;23;20421;-72
2023/04/12 07:51:03;;;;;;;2.63;1.60;;;;;;;;;;6215398;23;20382;-79
2023/04/12 07:53:30;;;;;;;2.80;1.07;;;;;;;;;;6216571;23;20733;-72
2023/04/12 07:55:56;;;;;;;3.70;1.10;;;;;;;;;;6216091;23;20701;-79
2023/04/12 07:58:23;;;;;;;8.60;1.23;;;;;;;;;;6215435;23;20426;-75
2023/04/12 08:00:49;;;;;;;4.73;1.27;;;;;;;;;;6215256;23;20795;-69
2023/04/12 08:03:16;;;;;;;1.73;1.30;;;;;;;;;;6215311;23;20430;-74
2023/04/12 08:05:43;;;;;;;3.10;1.67;;;;;;;;;;6215726;23;20422;-76
2023/04/12 08:08:09;;;;;;;1.00;1.00;;;;;;;;;;6215441;23;20367;-74
2023/04/12 08:10:35;;;;;;;2.43;0.90;;;;;;;;;;6215715;23;20415;-77
2023/04/12 08:13:02;;;;;;;5.80;1.17;;;;;;;;;;6215499;23;20837;-72
2023/04/12 08:15:28;;;;;;;1.20;1.20;;;;;;;;;;6215423;23;20379;-73
2023/04/12 08:17:54;;;;;;;1.37;0.90;;;;;;;;;;6215604;23;20379;-77
2023/04/12 08:20:20;;;;;;;1.83;1.00;;;;;;;;;;6215410;23;20437;-77
2023/04/12 08:22:46;;;;;;;6.00;1.57;;;;;;;;;;6216059;23;20391;-78
2023/04/12 08:25:12;;;;;;;1.13;1.10;;;;;;;;;;6215443;23;20702;-75
2023/04/12 08:27:42;;;;;;;1.60;0.70;;;;;;;;;;6215499;23;20383;-74
2023/04/12 08:30:08;;;;;;;1.03;1.03;;;;;;;;;;6215706;23;20418;-71
2023/04/12 08:32:36;;;;;;;4.87;1.33;;;;;;;;;;6215892;23;20371;-76
2023/04/12 08:35:02;;;;;;;1.50;0.90;;;;;;;;;;6215395;23;20462;-71
2023/04/12 08:37:28;;;;;;;2.63;0.90;;;;;;;;;;6215655;23;20399;-73
2023/04/12 08:39:54;;;;;;;3.97;1.23;;;;;;;;;;6214173;23;20952;-73
2023/04/12 08:42:20;;;;;;;1.10;0.77;;;;;;;;;;6217322;23;20438;-77
2023/04/12 08:44:47;;;;;;;1.10;0.97;;;;;;;;;;6217586;23;20386;-78
2023/04/12 08:47:13;;;;;;;1.30;1.00;;;;;;;;;;6217490;23;20837;-72
2023/04/12 08:49:39;;;;;;;4.67;1.20;;;;;;;;;;6217756;23;20375;-63
2023/04/12 08:52:06;;;;;;;4.50;1.07;;;;;;;;;;6217466;23;20386;-77
2023/04/12 08:54:32;;;;;;;5.90;1.00;;;;;;;;;;6217666;23;20397;-75
2023/04/12 08:57:00;;;;;;;2.27;1.10;;;;;;;;;;6217442;23;20387;-67
2023/04/12 08:59:29;;;;;;;1.40;1.30;;;;;;;;;;6217302;23;20831;-70
2023/04/12 09:01:55;;;;;;;1.23;1.23;;;;;;;;;;6215516;23;20439;-76
2023/04/12 09:04:22;;;;;;;1.70;1.33;;;;;;;;;;6217272;23;20375;-73
2023/04/12 09:06:47;;;;;;;2.83;1.38;;;;;;;;;;6217329;23;20421;-70
2023/04/12 09:09:13;;;;;;;3.47;1.30;;;;;;;;;;6217432;23;20175;-70
2023/04/12 09:11:39;;;;;;;1.60;1.57;;;;;;;;;;6217224;23;20379;-71
2023/04/12 09:14:25;;;;;;;1.57;1.43;;;;;;;;;;6217485;23;20377;-72
2023/04/12 09:16:51;;;;;;;2.90;0.93;;;;;;;;;;6217166;23;20399;-71
2023/04/12 09:19:30;;;;;;;6.03;1.67;;;;;;;;;;6217221;23;20379;-75
2023/04/12 09:21:56;;;;;;;1.50;1.00;;;;;;;;;;6217247;23;20500;-76
2023/04/12 09:24:25;;;;;;;4.10;1.70;;;;;;;;;;6217130;23;20708;-77
2023/04/12 09:27:07;;;;;;;1.43;0.90;;;;;;;;;;6217396;23;20390;-78
2023/04/12 09:29:34;;;;;;;1.47;1.37;;;;;;;;;;6217252;23;20379;-77
2023/04/12 09:32:05;;;;;;;1.97;1.77;;;;;;;;;;6217071;23;20772;-77
2023/04/12 09:34:31;;;;;;;1.83;1.30;;;;;;;;;;6216757;23;20767;-77
2023/04/12 09:36:57;;;;;;;2.30;1.00;;;;;;;;;;6215296;23;20402;-77
2023/04/12 09:39:30;;;;;;;1.80;1.17;;;;;;;;;;6216654;23;20518;-77
2023/04/12 09:42:26;;;;;;;4.03;1.50;;;;;;;;;;6216939;23;20464;-77
2023/04/12 09:44:53;;;;;;;2.10;1.67;;;;;;;;;;6191698;23;20382;-75
2023/04/12 09:47:19;;;;;;;2.37;2.10;;;;;;;;;;6216793;23;20837;-78
2023/04/12 09:49:45;;;;;;;8.80;1.50;;;;;;;;;;6217010;23;20379;-78
2023/04/12 09:52:12;;;;;;;1.03;1.03;;;;;;;;;;6216866;23;20382;-77
2023/04/12 09:54:45;;;;;;;1.50;0.90;;;;;;;;;;6216584;23;20371;-77
2023/04/12 09:57:12;;;;;;;2.63;1.60;;;;;;;;;;6216610;23;20418;-73
2023/04/12 09:59:39;;;;;;;8.10;2.00;;;;;;;;;;6216864;23;20371;-75
2023/04/12 10:02:07;;;;;;;2.30;1.37;;;;;;;;;;6216465;23;20426;-78
2023/04/12 10:04:34;;;;;;;1.10;1.00;;;;;;;;;;6216918;23;20474;-75
2023/04/12 10:07:01;;;;;;;2.30;1.23;;;;;;;;;;6216606;23;20709;-76
2023/04/12 10:09:28;;;;;;;4.27;1.77;;;;;;;;;;6216396;23;20380;-78
2023/04/12 10:11:54;;;;;;;1.40;1.40;;;;;;;;;;6216545;23;20379;-79
2023/04/12 10:14:20;;;;;;;1.83;1.73;;;;;;;;;;6216547;23;20433;-78
2023/04/12 10:16:48;;;;;;;9.37;1.57;;;;;;;;;;6216981;23;20390;-79
2023/04/12 10:19:15;;;;;;;1.90;1.90;;;;;;;;;;6216328;23;20387;-72
2023/04/12 10:21:41;;;;;;;1.57;1.57;;;;;;;;;;6214769;23;20502;-70
2023/04/12 10:24:08;;;;;;;4.03;1.60;;;;;;;;;;6215596;23;20379;-72
2023/04/12 10:26:34;;;;;;;6.93;2.23;;;;;;;;;;6215906;23;20376;-77
2023/04/12 10:29:19;;;;;;;1.43;1.33;;;;;;;;;;6215805;23;20403;-74
2023/04/12 10:31:45;;;;;;;4.93;1.70;;;;;;;;;;6216040;23;20418;-76
2023/04/12 10:34:11;;;;;;;6.17;2.60;;;;;;;;;;6216185;23;20363;-69
2023/04/12 10:37:06;;;;;;;1.30;1.20;;;;;;;;;;6216396;23;20457;-73
2023/04/12 10:39:41;;;;;;;1.10;1.10;;;;;;;;;;6175363;23;20767;-79
2023/04/12 10:42:24;;;;;;;3.70;1.10;;;;;;;;;;6214390;23;20444;-76
2023/04/12 10:45:10;;;;;;;3.03;1.27;;;;;;;;;;6216646;23;20375;-78
2023/04/12 10:47:48;;;;;;;4.23;1.60;;;;;;;;;;6214265;23;20403;-72
2023/04/12 10:50:26;;;;;;;3.30;1.73;;;;;;;;;;6215849;23;20371;-76
2023/04/12 10:53:17;;;;;;;1.00;0.90;;;;;;;;;;6216678;23;20378;-74
2023/04/12 10:55:43;;;;;;;1.70;1.60;;;;;;;;;;6216261;23;20378;-78
2023/04/12 10:58:09;;;;;;;7.70;1.10;;;;;;;;;;6216288;23;20371;-77
2023/04/12 11:00:54;;;;;;;3.03;1.40;;;;;;;;;;6215997;23;20379;-76
2023/04/12 11:03:20;;;;;;;14.53;2.13;;;;;;;;;;6216211;23;20375;-77
2023/04/12 11:05:59;;;;;;;0.80;0.80;;;;;;;;;;6215791;23;20424;-75
2023/04/12 11:08:26;;;;;;;1.90;0.93;;;;;;;;;;6214246;23;20868;-74
2023/04/12 11:10:58;;;;;;;3.47;1.00;;;;;;;;;;6214208;23;20389;-77
2023/04/12 11:13:25;;;;;;;1.13;1.03;;;;;;;;;;6215823;23;20372;-70
2023/04/12 11:15:58;;;;;;;0.97;0.97;;;;;;;;;;6215653;23;20734;-71
2023/04/12 11:18:25;;;;;;;9.20;1.60;;;;;;;;;;6216127;23;20383;-77
2023/04/12 11:20:52;;;;;;;1.63;1.53;;;;;;;;;;6215505;23;20439;-74
2023/04/12 11:23:18;;;;;;;1.10;1.10;;;;;;;;;;6215727;23;20710;-77
2023/04/12 11:25:49;;;;;;;2.03;0.93;;;;;;;;;;6216184;23;20387;-77
2023/04/12 11:28:19;;;;;;;1.07;0.80;;;;;;;;;;6216042;23;20366;-77
2023/04/12 11:30:48;;;;;;;1.10;1.00;;;;;;;;;;6215529;23;20474;-69
2023/04/12 11:33:30;;;;;;;3.57;0.97;;;;;;;;;;6216622;23;20379;-74
2023/04/12 11:35:56;;;;;;;3.17;1.10;;;;;;;;;;6215883;23;20398;-74
2023/04/12 11:38:22;;;;;;;2.47;1.27;;;;;;;;;;6215967;23;20380;-74
2023/04/12 11:40:48;;;;;;;2.93;1.37;;;;;;;;;;6215260;23;20529;-67
2023/04/12 11:43:19;;;;;;;6.57;0.80;;;;;;;;;;6215866;23;20453;-67
2023/04/12 11:45:45;;;;;;;2.10;0.90;;;;;;;;;;6215528;23;20382;-64
2023/04/12 11:48:11;;;;;;;2.43;0.87;;;;;;;;;;6215695;23;20406;-68
2023/04/12 11:50:39;;;;;;;0.97;0.97;;;;;;;;;;6215384;23;20857;-68
2023/04/12 11:53:18;;;;;;;0.97;0.80;;;;;;;;;;6215495;23;20405;-68
2023/04/12 11:55:50;;;;;;;3.83;1.00;;;;;;;;;;6215716;23;20374;-61
2023/04/12 11:58:23;;;;;;;5.10;1.33;;;;;;;;;;6215790;23;20390;-64
2023/04/12 12:00:49;;;;;;;3.90;1.13;;;;;;;;;;6215536;23;20462;-61
2023/04/12 12:03:15;;;;;;;1.40;0.90;;;;;;;;;;6215471;23;20375;-62
2023/04/12 12:05:41;;;;;;;1.33;1.00;;;;;;;;;;6215519;23;20367;-63
2023/04/12 12:08:10;;;;;;;0.80;0.80;;;;;;;;;;6215631;23;20418;-71
2023/04/12 12:10:37;;;;;;;0.83;0.83;;;;;;;;;;6213788;23;20482;-68
2023/04/12 12:13:04;;;;;;;1.27;1.10;;;;;;;;;;6215492;23;20375;-71
2023/04/12 12:15:30;;;;;;;0.73;0.73;;;;;;;;;;6215333;23;20379;-69
2023/04/12 12:17:58;;;;;;;1.97;0.73;;;;;;;;;;6215627;23;20498;-68
2023/04/12 12:20:26;;;;;;;2.77;1.50;;;;;;;;;;6213581;23;20387;-72
2023/04/12 12:22:52;;;;;;;1.73;1.63;;;;;;;;;;6215293;23;20889;-73
2023/04/12 12:25:18;;;;;;;1.00;0.97;;;;;;;;;;6215615;23;20443;-71
2023/04/12 12:27:47;;;;;;;1.33;1.20;;;;;;;;;;6215281;23;20429;-73
2023/04/12 12:30:13;;;;;;;0.93;0.93;;;;;;;;;;6215437;23;20474;-73
2023/04/12 12:32:39;;;;;;;4.83;1.00;;;;;;;;;;6215627;23;20416;-71
2023/04/12 12:35:09;;;;;;;1.93;1.93;;;;;;;;;;6215283;23;20379;-73
2023/04/12 12:37:35;;;;;;;12.93;9.80;;;;;;;;;;6215256;23;20390;-73
2023/04/12 12:40:12;;;;;;;13.80;7.80;;;;;;;;;;6215140;23;20441;-76
2023/04/12 12:42:44;;;;;;;4.37;3.97;;;;;;;;;;6213784;23;20770;-77
2023/04/12 12:45:11;;;;;;;1.50;0.77;;;;;;;;;;6215183;23;20371;-76
2023/04/12 12:47:49;;;;;;;1.33;1.23;;;;;;;;;;6215452;23;20815;-78
2023/04/12 12:50:16;;;;;;;1.00;1.00;;;;;;;;;;6215673;23;20405;-77
2023/04/12 12:52:43;;;;;;;9.90;2.00;;;;;;;;;;6215250;23;20372;-76
2023/04/12 12:55:09;;;;;;;1.73;1.73;;;;;;;;;;6215244;23;20833;-75
2023/04/12 12:57:35;;;;;;;1.70;1.63;;;;;;;;;;6213802;23;20486;-78
2023/04/12 13:00:03;;;;;;;7.97;7.13;;;;;;;;;;6216132;23;20383;-76
2023/04/12 13:02:29;;;;;;;9.90;8.37;;;;;;;;;;6215229;23;20509;-74
2023/04/12 13:04:56;;;;;;;1.70;1.53;;;;;;;;;;6213289;23;20409;-71
2023/04/12 13:07:22;;;;;;;1.20;1.10;;;;;;;;;;6213611;23;20496;-77
2023/04/12 13:09:48;;;;;;;1.60;1.60;;;;;;;;;;6215427;23;20889;-72
2023/04/12 13:12:15;;;;;;;1.27;1.27;;;;;;;;;;6214218;23;20861;-76
2023/04/12 13:14:41;;;;;;;6.37;1.23;;;;;;;;;;6215533;23;20372;-77
2023/04/12 13:17:07;;;;;;;0.80;0.80;;;;;;;;;;6215542;23;20383;-78
2023/04/12 13:19:33;;;;;;;2.50;0.95;;;;;;;;;;6214113;23;20358;-74
2023/04/12 13:21:59;;;;;;;0.90;0.90;;;;;;;;;;6214821;23;20559;-75
2023/04/12 13:24:25;;;;;;;1.97;0.60;;;;;;;;;;6215200;23;20704;-69
2023/04/12 13:26:51;;;;;;;0.97;0.97;;;;;;;;;;6216666;23;20383;-76
2023/04/12 13:29:17;;;;;;;2.90;1.20;;;;;;;;;;6217334;23;20375;-74
2023/04/12 13:31:43;;;;;;;1.47;1.43;;;;;;;;;;6216977;23;20401;-78
2023/04/12 13:34:09;;;;;;;1.70;1.50;;;;;;;;;;6216953;23;20842;-71
2023/04/12 13:36:35;;;;;;;1.33;1.33;;;;;;;;;;6216901;23;20383;-77
2023/04/12 13:39:01;;;;;;;1.30;1.30;;;;;;;;;;6216908;23;20379;-77
2023/04/12 13:41:29;;;;;;;2.27;0.70;;;;;;;;;;6217326;23;20907;-75
2023/04/12 13:43:55;;;;;;;4.53;0.90;;;;;;;;;;6216741;23;20845;-74
2023/04/12 13:46:21;;;;;;;0.87;0.80;;;;;;;;;;6217405;23;20432;-72
2023/04/12 13:48:47;;;;;;;2.50;1.50;;;;;;;;;;6215224;23;20441;-70
2023/04/12 13:51:13;;;;;;;1.00;1.00;;;;;;;;;;6217056;23;20383;-72
2023/04/12 13:53:39;;;;;;;0.93;0.93;;;;;;;;;;6217024;23;20389;-71
2023/04/12 13:56:06;;;;;;;0.97;0.80;;;;;;;;;;6217148;23;20410;-74
2023/04/12 13:58:32;;;;;;;0.60;0.60;;;;;;;;;;6217027;23;20390;-73
2023/04/12 14:00:59;;;;;;;1.07;1.07;;;;;;;;;;6216915;23;20423;-75
2023/04/12 14:03:25;;;;;;;1.00;1.00;;;;;;;;;;6215603;23;20374;-70
2023/04/12 14:05:51;;;;;;;2.13;1.27;;;;;;;;;;6216568;23;20628;-72
2023/04/12 14:08:17;;;;;;;5.40;0.87;;;;;;;;;;6216552;23;20383;-75
2023/04/12 14:10:43;;;;;;;1.87;0.70;;;;;;;;;;6216973;23;20371;-73
2023/04/12 14:13:09;;;;;;;0.70;0.57;;;;;;;;;;6216519;23;20388;-74
2023/04/12 14:15:35;;;;;;;3.10;0.60;;;;;;;;;;6216829;23;20382;-76
2023/04/12 14:18:01;;;;;;;3.23;0.93;;;;;;;;;;6216806;23;20379;-70
2023/04/12 14:20:27;;;;;;;0.30;0.30;;;;;;;;;;6216377;23;20376;-72
2023/04/12 14:22:53;;;;;;;2.63;0.97;;;;;;;;;;6216428;23;20442;-72
2023/04/12 14:25:20;;;;;;;1.00;0.90;;;;;;;;;;6216455;23;20437;-73
2023/04/12 14:27:46;;;;;;;4.37;1.00;;;;;;;;;;6214578;23;20707;-75
2023/04/12 14:30:12;;;;;;;0.43;0.43;;;;;;;;;;6216994;23;20413;-70
2023/04/12 14:32:38;;;;;;;1.07;0.60;;;;;;;;;;6216428;23;20382;-74
2023/04/12 14:35:04;;;;;;;0.53;0.30;;;;;;;;;;6216883;23;20372;-69
2023/04/12 14:37:31;;;;;;;2.93;1.37;;;;;;;;;;6215712;23;20374;-67
2023/04/12 14:39:58;;;;;;;1.00;1.00;;;;;;;;;;6215939;23;20426;-69
2023/04/12 14:42:24;;;;;;;0.50;0.50;;;;;;;;;;6216561;23;20476;-75
2023/04/12 14:44:50;;;;;;;1.70;0.60;;;;;;;;;;6216387;23;20453;-76
2023/04/12 14:47:16;;;;;;;3.80;0.50;;;;;;;;;;6216231;23;20429;-77
2023/04/12 14:49:42;;;;;;;0.40;0.40;;;;;;;;;;6216158;23;20363;-73
2023/04/12 14:52:08;;;;;;;0.50;0.30;;;;;;;;;;6217055;23;20852;-76